Terminal Aerodrome Forecast
Issued by NWS Houston/Galveston, TX

Home | Current Version | Previous Version | Text Only | Print | Product List | Glossary On
Versions: 1 2 3 4 5 6 7 8 9 10 11 12 13 14 15 16 17 18 19 20 21 22 23 24 25 26 27 28 29 30 31 32 33 34 35 36 37 38 39 40 41
000
FTUS44 KHGX 290520
TAFCLL
TAF
KCLL 290520Z 2906/3006 16006KT P6SM VCSH FEW015 BKN250
     FM291000 15003KT 5SM BR SCT007 BKN012
      TEMPO 2910/2913 2SM BR OVC007
     FM291400 14007KT P6SM BKN015 BKN150
     FM291600 14008KT P6SM SCT025 BKN180
     FM292100 13009KT P6SM FEW045 SCT120
     FM300100 14006KT P6SM FEW040 BKN250=

USA.gov is the U.S. government's official web portal to all federal, state and local government web resources and services.